createdAt,value
2023-02-17T00:00:16.990Z,8.31
2023-02-17T00:05:24.592Z,8.39
2023-02-17T00:10:29.445Z,8.32
2023-02-17T00:15:34.759Z,8.35
2023-02-17T00:20:44.224Z,8.35
2023-02-17T00:25:49.184Z,8.38
2023-02-17T00:30:54.337Z,8.45
2023-02-17T00:36:02.020Z,8.61
2023-02-17T00:41:08.651Z,8.61
2023-02-17T00:46:13.684Z,8.55
2023-02-17T00:51:22.397Z,8.52
2023-02-17T00:56:27.305Z,8.67
2023-02-17T01:01:32.550Z,8.68
2023-02-17T01:06:41.829Z,8.56
2023-02-17T01:11:46.853Z,8.55
2023-02-17T01:16:52.215Z,8.61
2023-02-17T01:22:01.337Z,8.60
2023-02-17T01:27:06.555Z,8.66
2023-02-17T01:32:11.789Z,8.76
2023-02-17T01:37:19.287Z,8.77
2023-02-17T01:42:24.214Z,8.74
2023-02-17T01:47:29.116Z,8.80
2023-02-17T01:52:36.849Z,8.72
2023-02-17T01:57:44.144Z,8.81
2023-02-17T02:02:51.744Z,8.76
2023-02-17T02:08:00.684Z,8.74
2023-02-17T02:13:06.655Z,8.91
2023-02-17T02:18:34.722Z,8.84
2023-02-17T02:24:12.643Z,8.88
2023-02-17T02:29:33.624Z,8.83
2023-02-17T02:34:47.380Z,8.84
2023-02-17T02:39:55.949Z,8.79
2023-02-17T02:45:01.103Z,8.93
2023-02-17T02:50:09.671Z,8.93
2023-02-17T02:55:21.879Z,8.94
2023-02-17T03:00:33.323Z,8.93
2023-02-17T03:05:52.681Z,8.90
2023-02-17T03:10:58.253Z,8.75
2023-02-17T03:16:04.150Z,8.74
2023-02-17T03:21:17.754Z,8.68
2023-02-17T03:26:22.805Z,8.60
2023-02-17T03:31:30.770Z,8.77
2023-02-17T03:36:38.797Z,8.67
2023-02-17T03:41:43.673Z,8.70
2023-02-17T03:46:48.743Z,8.79
2023-02-17T03:51:56.352Z,8.81
2023-02-17T03:57:01.564Z,8.82
2023-02-17T04:02:06.957Z,8.74
2023-02-17T04:07:14.564Z,8.85
2023-02-17T04:12:19.454Z,8.73
2023-02-17T04:17:24.704Z,8.58
2023-02-17T04:22:32.350Z,8.38
2023-02-17T04:27:37.542Z,8.29
2023-02-17T04:32:44.101Z,8.04
2023-02-17T04:37:51.707Z,8.12
2023-02-17T04:42:56.664Z,7.88
2023-02-17T04:48:01.787Z,8.03
2023-02-17T04:53:09.866Z,7.83
2023-02-17T04:58:14.926Z,7.79
2023-02-17T05:03:20.481Z,7.92
2023-02-17T05:08:30.272Z,7.80
2023-02-17T05:13:35.455Z,7.85
2023-02-17T05:18:41.986Z,7.68
2023-02-17T05:23:49.505Z,7.91
2023-02-17T05:28:54.520Z,7.78
2023-02-17T05:33:59.504Z,7.80
2023-02-17T05:39:09.085Z,7.86
2023-02-17T05:44:14.347Z,7.95
2023-02-17T05:49:19.439Z,7.97
2023-02-17T05:54:27.114Z,8.00
2023-02-17T05:59:31.992Z,8.01
2023-02-17T06:04:37.028Z,8.04
2023-02-17T06:09:47.411Z,8.17
2023-02-17T06:14:55.237Z,8.06
2023-02-17T06:20:00.482Z,8.13
2023-02-17T06:25:08.482Z,8.16
2023-02-17T06:30:15.079Z,8.37
2023-02-17T06:35:21.272Z,8.34
2023-02-17T06:40:28.996Z,8.40
2023-02-17T06:45:36.032Z,8.35
2023-02-17T06:50:45.930Z,8.45
2023-02-17T06:56:07.381Z,8.50
2023-02-17T07:01:20.563Z,8.52
2023-02-17T07:06:30.329Z,8.50
2023-02-17T07:11:38.164Z,8.54
2023-02-17T07:16:46.164Z,8.68
2023-02-17T07:22:08.023Z,8.63
2023-02-17T07:27:16.088Z,8.77
2023-02-17T07:32:21.072Z,8.84
2023-02-17T07:37:26.020Z,8.75
2023-02-17T07:42:33.772Z,8.73
2023-02-17T07:47:38.872Z,8.86
2023-02-17T07:52:44.069Z,8.91
2023-02-17T07:57:52.072Z,8.85
2023-02-17T08:02:57.000Z,8.99
2023-02-17T08:08:29.434Z,8.98
2023-02-17T08:13:37.379Z,9.00
2023-02-17T08:18:42.419Z,9.02
2023-02-17T08:23:47.430Z,9.11
2023-02-17T08:28:55.219Z,9.10
2023-02-17T08:34:02.685Z,9.11
2023-02-17T08:39:08.331Z,9.09
2023-02-17T08:44:17.854Z,9.20
2023-02-17T08:49:25.089Z,9.15
2023-02-17T08:54:30.590Z,9.19
2023-02-17T08:59:38.416Z,9.39
2023-02-17T09:04:43.868Z,9.33
2023-02-17T09:09:49.011Z,9.37
2023-02-17T09:14:56.889Z,9.38
2023-02-17T09:20:02.173Z,9.49
2023-02-17T09:25:11.150Z,9.58
2023-02-17T09:30:19.523Z,9.63
2023-02-17T09:35:24.551Z,9.79
2023-02-17T09:40:40.741Z,9.74
2023-02-17T09:45:53.707Z,9.86
2023-02-17T09:51:03.410Z,9.93
2023-02-17T09:56:16.194Z,10.07
2023-02-17T10:01:28.931Z,10.15
2023-02-17T10:06:37.643Z,10.38
2023-02-17T10:11:47.066Z,10.41
2023-02-17T10:17:03.226Z,10.41
2023-02-17T10:22:14.178Z,10.43
2023-02-17T10:27:39.469Z,10.41
2023-02-17T10:32:59.743Z,10.52
2023-02-17T10:38:15.487Z,10.50
2023-02-17T10:43:29.524Z,10.61
2023-02-17T10:48:49.023Z,10.69
2023-02-17T10:53:59.502Z,10.80
2023-02-17T10:59:09.398Z,10.96
2023-02-17T11:04:17.060Z,10.96
2023-02-17T11:09:30.857Z,10.80
2023-02-17T11:14:40.488Z,10.79
2023-02-17T11:19:57.964Z,10.73
2023-02-17T11:25:07.142Z,10.57
2023-02-17T11:30:18.916Z,10.45
2023-02-17T11:35:31.265Z,10.37
2023-02-17T11:40:37.993Z,10.34
2023-02-17T11:45:48.547Z,10.42
2023-02-17T11:51:05.513Z,10.40
2023-02-17T11:56:54.672Z,10.69
2023-02-17T12:02:37.417Z,10.81
2023-02-17T12:08:08.248Z,10.85
2023-02-17T12:13:35.624Z,10.94
2023-02-17T12:18:52.979Z,11.16
2023-02-17T12:24:35.496Z,11.32
2023-02-17T12:30:01.892Z,11.26
2023-02-17T12:35:17.492Z,11.47
2023-02-17T12:40:37.824Z,11.57
2023-02-17T12:45:51.576Z,11.73
2023-02-17T12:51:05.846Z,11.82
2023-02-17T12:56:33.156Z,11.75
2023-02-17T13:01:51.524Z,11.79
2023-02-17T13:07:15.849Z,11.76
2023-02-17T13:12:41.563Z,11.84
2023-02-17T13:18:03.788Z,12.04
2023-02-17T13:23:11.878Z,12.12
2023-02-17T13:28:33.618Z,12.13
2023-02-17T13:33:48.995Z,12.15
2023-02-17T13:39:03.283Z,12.17
2023-02-17T13:44:30.290Z,12.14
2023-02-17T13:49:40.346Z,12.20
2023-02-17T13:54:54.491Z,12.19
2023-02-17T14:00:35.019Z,12.15
2023-02-17T14:05:49.317Z,12.13
2023-02-17T14:11:09.285Z,12.11
2023-02-17T14:16:30.875Z,12.18
2023-02-17T14:21:40.165Z,12.18
2023-02-17T14:26:50.083Z,12.29
2023-02-17T14:31:57.626Z,12.36
2023-02-17T14:37:14.124Z,12.35
2023-02-17T14:42:19.599Z,12.40
2023-02-17T14:47:24.658Z,12.39
2023-02-17T14:52:33.209Z,12.34
2023-02-17T14:57:38.169Z,12.38
2023-02-17T15:02:43.127Z,12.42
2023-02-17T15:07:53.342Z,12.44
2023-02-17T15:13:02.360Z,12.50
2023-02-17T15:18:07.521Z,12.44
2023-02-17T15:23:18.112Z,12.47
2023-02-17T15:28:23.792Z,12.39
2023-02-17T15:33:28.824Z,12.42
2023-02-17T15:38:36.483Z,12.34
2023-02-17T15:43:43.914Z,12.37
2023-02-17T15:48:52.373Z,12.33
2023-02-17T15:54:02.530Z,12.29
2023-02-17T15:59:17.642Z,12.29
2023-02-17T16:04:22.962Z,12.27
2023-02-17T16:09:30.752Z,12.15
2023-02-17T16:14:38.480Z,12.29
2023-02-17T16:19:43.572Z,12.19
2023-02-17T16:24:51.199Z,12.24
2023-02-17T16:29:56.228Z,12.29
2023-02-17T16:35:01.397Z,12.22
2023-02-17T16:40:19.074Z,12.15
2023-02-17T16:45:28.154Z,12.18
2023-02-17T16:50:35.390Z,12.20
2023-02-17T16:55:43.535Z,12.15
2023-02-17T17:00:52.313Z,12.16
2023-02-17T17:05:57.942Z,12.13
2023-02-17T17:11:05.417Z,12.09
2023-02-17T17:16:15.013Z,12.16
2023-02-17T17:21:22.110Z,12.21
2023-02-17T17:26:33.836Z,12.26
2023-02-17T17:31:40.062Z,12.30
2023-02-17T17:36:48.164Z,12.31
2023-02-17T17:41:57.523Z,12.30
2023-02-17T17:47:02.461Z,12.33
2023-02-17T17:52:08.561Z,12.51
2023-02-17T17:57:16.158Z,12.56
2023-02-17T18:02:21.104Z,12.54
2023-02-17T18:07:26.262Z,12.47
2023-02-17T18:12:35.586Z,12.09
2023-02-17T18:17:45.500Z,11.70
2023-02-17T18:22:50.760Z,11.44
2023-02-17T18:28:01.058Z,11.20
2023-02-17T18:33:06.931Z,11.00
2023-02-17T18:38:12.538Z,10.95
2023-02-17T18:43:22.964Z,10.86
2023-02-17T18:48:28.354Z,10.92
2023-02-17T18:53:33.412Z,10.95
2023-02-17T18:58:41.053Z,10.89
2023-02-17T19:03:46.638Z,10.92
2023-02-17T19:08:52.560Z,10.89
2023-02-17T19:14:00.523Z,10.94
2023-02-17T19:19:06.238Z,11.01
2023-02-17T19:24:14.979Z,10.98
2023-02-17T19:29:22.974Z,10.93
2023-02-17T19:34:28.413Z,10.97
2023-02-17T19:39:39.646Z,10.98
2023-02-17T19:44:47.565Z,10.95
2023-02-17T19:49:52.531Z,10.96
2023-02-17T19:54:57.563Z,10.98
2023-02-17T20:00:05.345Z,11.01
2023-02-17T20:05:11.976Z,11.08
2023-02-17T20:10:20.516Z,11.11
2023-02-17T20:15:28.474Z,11.12
2023-02-17T20:20:34.593Z,11.12
2023-02-17T20:25:43.510Z,11.15
2023-02-17T20:30:53.780Z,11.10
2023-02-17T20:35:58.923Z,11.11
2023-02-17T20:41:05.251Z,11.07
2023-02-17T20:46:16.126Z,11.12
2023-02-17T20:51:22.067Z,11.09
2023-02-17T20:56:36.307Z,11.04
2023-02-17T21:01:46.010Z,10.91
2023-02-17T21:06:51.859Z,10.87
2023-02-17T21:11:56.789Z,10.83
2023-02-17T21:17:04.307Z,10.73
2023-02-17T21:22:10.932Z,10.74
2023-02-17T21:27:15.870Z,10.68
2023-02-17T21:32:23.603Z,10.68
2023-02-17T21:37:28.690Z,10.68
2023-02-17T21:42:46.246Z,10.75
2023-02-17T21:47:56.488Z,10.75
2023-02-17T21:53:01.428Z,10.75
2023-02-17T21:58:06.371Z,10.61
2023-02-17T22:03:14.050Z,10.06
2023-02-17T22:08:21.037Z,9.86
2023-02-17T22:13:26.120Z,9.73
2023-02-17T22:18:33.724Z,9.65
2023-02-17T22:23:39.529Z,9.53
2023-02-17T22:28:44.657Z,9.52
2023-02-17T22:33:54.163Z,9.45
2023-02-17T22:38:59.121Z,9.45
2023-02-17T22:44:06.649Z,9.34
2023-02-17T22:49:14.393Z,9.33
2023-02-17T22:54:19.327Z,9.31
2023-02-17T22:59:24.659Z,9.30
2023-02-17T23:04:32.716Z,9.26
2023-02-17T23:09:37.929Z,9.26
2023-02-17T23:14:46.755Z,9.29
2023-02-17T23:19:54.404Z,9.37
2023-02-17T23:25:00.453Z,9.30
2023-02-17T23:30:10.639Z,9.34
2023-02-17T23:35:19.193Z,9.42
2023-02-17T23:40:24.851Z,9.37
2023-02-17T23:45:29.818Z,9.35
2023-02-17T23:50:39.309Z,9.32
2023-02-17T23:55:44.472Z,9.35
